createdAt,value
2022-09-13T00:00:53.984Z,15.47
2022-09-13T00:03:22.427Z,16.33
2022-09-13T00:05:50.633Z,14.03
2022-09-13T00:08:18.731Z,13.73
2022-09-13T00:10:47.027Z,14.07
2022-09-13T00:13:16.951Z,13.30
2022-09-13T00:15:45.356Z,13.37
2022-09-13T00:18:13.563Z,13.37
2022-09-13T00:20:41.806Z,12.47
2022-09-13T00:23:10.927Z,11.73
2022-09-13T00:25:39.107Z,11.00
2022-09-13T00:28:07.195Z,12.00
2022-09-13T00:30:36.793Z,11.53
2022-09-13T00:33:05.016Z,12.17
2022-09-13T00:35:33.214Z,11.60
2022-09-13T00:38:02.058Z,11.03
2022-09-13T00:40:31.514Z,11.10
2022-09-13T00:42:59.777Z,11.07
2022-09-13T00:45:28.326Z,10.97
2022-09-13T00:47:59.110Z,11.33
2022-09-13T00:50:30.127Z,11.17
2022-09-13T00:53:00.249Z,10.90
2022-09-13T00:55:30.781Z,11.20
2022-09-13T00:58:00.207Z,11.63
2022-09-13T01:00:28.431Z,11.07
2022-09-13T01:02:59.604Z,11.37
2022-09-13T01:05:29.126Z,10.80
2022-09-13T01:07:57.475Z,10.87
2022-09-13T01:10:26.690Z,10.67
2022-09-13T01:12:56.612Z,10.23
2022-09-13T01:15:24.847Z,9.70
2022-09-13T01:17:54.264Z,11.47
2022-09-13T01:20:24.147Z,9.83
2022-09-13T01:23:20.874Z,9.60
2022-09-13T01:26:17.338Z,9.97
2022-09-13T01:29:20.759Z,9.80
2022-09-13T01:31:52.992Z,9.43
2022-09-13T01:34:28.782Z,9.63
2022-09-13T01:37:06.983Z,10.00
2022-09-13T01:39:44.707Z,9.60
2022-09-13T01:42:17.926Z,9.93
2022-09-13T01:44:55.758Z,9.67
2022-09-13T01:47:27.999Z,9.53
2022-09-13T01:50:02.514Z,8.63
2022-09-13T01:52:31.931Z,9.80
2022-09-13T01:55:04.776Z,10.53
2022-09-13T01:57:34.508Z,9.50
2022-09-13T02:00:05.267Z,9.47
2022-09-13T02:02:36.976Z,10.47
2022-09-13T02:05:07.486Z,9.57
2022-09-13T02:07:37.018Z,8.97
2022-09-13T02:10:08.170Z,9.37
2022-09-13T02:12:36.489Z,9.53
2022-09-13T02:15:06.056Z,9.33
2022-09-13T02:17:38.179Z,9.83
2022-09-13T02:20:09.353Z,10.13
2022-09-13T02:22:39.229Z,9.23
2022-09-13T02:25:09.428Z,10.00
2022-09-13T02:27:37.646Z,9.43
2022-09-13T02:30:07.996Z,9.53
2022-09-13T02:32:40.419Z,9.03
2022-09-13T02:35:10.443Z,9.83
2022-09-13T02:37:39.455Z,8.80
2022-09-13T02:40:10.148Z,8.93
2022-09-13T02:42:41.469Z,8.77
2022-09-13T02:45:10.134Z,9.27
2022-09-13T02:47:43.746Z,9.27
2022-09-13T02:50:32.128Z,8.90
2022-09-13T02:53:04.060Z,8.33
2022-09-13T02:55:34.195Z,8.33
2022-09-13T02:58:04.667Z,8.70
2022-09-13T03:00:32.838Z,8.70
2022-09-13T03:03:05.669Z,9.27
2022-09-13T03:05:33.865Z,9.03
2022-09-13T03:08:02.170Z,7.87
2022-09-13T03:10:32.087Z,8.27
2022-09-13T03:13:10.323Z,9.63
2022-09-13T03:15:51.316Z,9.07
2022-09-13T03:18:50.006Z,9.33
2022-09-13T03:21:26.164Z,8.90
2022-09-13T03:23:57.595Z,8.90
2022-09-13T03:26:28.971Z,9.17
2022-09-13T03:29:05.380Z,8.83
2022-09-13T03:31:35.363Z,9.80
2022-09-13T03:34:09.119Z,9.93
2022-09-13T03:36:38.242Z,8.70
2022-09-13T03:39:14.974Z,12.50
2022-09-13T03:41:44.706Z,11.10
2022-09-13T03:44:27.793Z,11.37
2022-09-13T03:46:57.607Z,12.53
2022-09-13T03:49:27.614Z,15.03
2022-09-13T03:51:55.700Z,14.60
2022-09-13T03:54:25.025Z,14.70
2022-09-13T03:57:08.556Z,14.27
2022-09-13T03:59:38.800Z,15.77
2022-09-13T04:02:12.290Z,14.73
2022-09-13T04:04:42.757Z,15.53
2022-09-13T04:07:12.244Z,16.33
2022-09-13T04:09:40.505Z,17.97
2022-09-13T04:12:10.112Z,15.67
2022-09-13T04:14:38.340Z,16.27
2022-09-13T04:17:06.911Z,18.50
2022-09-13T04:19:35.121Z,16.87
2022-09-13T04:22:05.028Z,16.83
2022-09-13T04:24:33.160Z,15.10
2022-09-13T04:27:01.980Z,15.10
2022-09-13T04:29:31.839Z,15.63
2022-09-13T04:32:00.218Z,15.03
2022-09-13T04:34:28.489Z,15.27
2022-09-13T04:36:57.135Z,14.83
2022-09-13T04:39:26.770Z,16.70
2022-09-13T04:41:54.946Z,16.33
2022-09-13T04:44:24.535Z,15.43
2022-09-13T04:46:52.889Z,16.90
2022-09-13T04:49:22.103Z,16.90
2022-09-13T04:51:50.481Z,16.63
2022-09-13T04:54:18.903Z,16.10
2022-09-13T04:56:49.610Z,16.37
2022-09-13T04:59:17.820Z,15.90
2022-09-13T05:01:46.061Z,14.73
2022-09-13T05:04:14.706Z,17.17
2022-09-13T05:06:42.972Z,16.23
2022-09-13T05:09:13.623Z,15.97
2022-09-13T05:11:41.863Z,15.63
2022-09-13T05:14:12.434Z,16.90
2022-09-13T05:16:40.884Z,16.33
2022-09-13T05:19:09.358Z,17.57
2022-09-13T05:21:37.706Z,16.03
2022-09-13T05:24:05.977Z,15.53
2022-09-13T05:26:34.096Z,16.77
2022-09-13T05:29:02.454Z,18.53
2022-09-13T05:31:32.838Z,19.43
2022-09-13T05:34:02.207Z,20.67
2022-09-13T05:36:30.411Z,19.50
2022-09-13T05:39:26.050Z,19.17
2022-09-13T05:41:47.032Z,19.83
2022-09-13T05:44:15.265Z,19.50
2022-09-13T05:46:47.564Z,19.23
2022-09-13T05:49:15.905Z,18.80
2022-09-13T05:51:44.017Z,18.53
2022-09-13T05:54:13.110Z,19.43
2022-09-13T05:56:41.208Z,18.93
2022-09-13T05:59:12.690Z,17.47
2022-09-13T06:01:40.766Z,16.63
2022-09-13T06:04:12.596Z,15.67
2022-09-13T06:06:40.772Z,16.00
2022-09-13T06:09:09.461Z,15.90
2022-09-13T06:11:37.507Z,16.70
2022-09-13T06:14:05.720Z,16.63
2022-09-13T06:16:33.854Z,15.67
2022-09-13T06:19:02.163Z,15.63
2022-09-13T06:21:34.539Z,15.93
2022-09-13T06:24:03.992Z,14.97
2022-09-13T06:26:32.138Z,15.37
2022-09-13T06:29:00.419Z,15.53
2022-09-13T06:31:29.521Z,16.20
2022-09-13T06:33:59.700Z,15.17
2022-09-13T06:36:27.896Z,14.93
2022-09-13T06:39:00.660Z,14.27
2022-09-13T06:41:28.876Z,14.27
2022-09-13T06:43:58.648Z,13.93
2022-09-13T06:46:27.354Z,13.77
2022-09-13T06:48:57.859Z,13.47
2022-09-13T06:51:26.346Z,13.07
2022-09-13T06:53:56.716Z,13.63
2022-09-13T06:56:26.694Z,12.40
2022-09-13T06:58:57.398Z,12.90
2022-09-13T07:01:26.503Z,13.77
2022-09-13T07:03:55.574Z,12.90
2022-09-13T07:06:24.841Z,13.00
2022-09-13T07:08:53.274Z,12.20
2022-09-13T07:11:22.241Z,11.50
2022-09-13T07:13:51.909Z,13.03
2022-09-13T07:16:20.753Z,12.23
2022-09-13T07:18:52.511Z,11.47
2022-09-13T07:21:20.760Z,12.10
2022-09-13T07:23:48.812Z,11.27
2022-09-13T07:26:16.916Z,11.40
2022-09-13T07:28:46.112Z,10.13
2022-09-13T07:31:16.534Z,10.53
2022-09-13T07:33:45.074Z,9.97
2022-09-13T07:36:13.204Z,10.20
2022-09-13T07:38:42.372Z,10.80
2022-09-13T07:41:14.896Z,8.97
2022-09-13T07:43:43.063Z,10.03
2022-09-13T07:46:11.979Z,9.63
2022-09-13T07:48:42.469Z,9.63
2022-09-13T07:51:11.485Z,9.23
2022-09-13T07:53:40.217Z,9.60
2022-09-13T07:56:08.966Z,10.03
2022-09-13T07:58:38.070Z,9.60
2022-09-13T08:01:07.889Z,9.23
2022-09-13T08:03:36.624Z,8.93
2022-09-13T08:06:06.437Z,8.87
2022-09-13T08:08:34.669Z,8.63
2022-09-13T08:11:03.152Z,7.93
2022-09-13T08:13:33.017Z,7.97
2022-09-13T08:16:03.061Z,8.10
2022-09-13T08:18:31.193Z,7.57
2022-09-13T08:20:59.410Z,7.10
2022-09-13T08:23:28.941Z,6.70
2022-09-13T08:26:02.650Z,6.83
2022-09-13T08:28:31.645Z,6.90
2022-09-13T08:31:05.080Z,6.93
2022-09-13T08:33:33.539Z,6.40
2022-09-13T08:36:01.605Z,6.97
2022-09-13T08:38:31.173Z,6.43
2022-09-13T08:41:00.626Z,5.87
2022-09-13T08:43:44.860Z,5.53
2022-09-13T08:46:22.388Z,5.87
2022-09-13T08:48:51.488Z,5.23
2022-09-13T08:51:28.451Z,5.00
2022-09-13T08:53:58.483Z,5.70
2022-09-13T08:56:31.482Z,6.00
2022-09-13T08:59:05.144Z,5.17
2022-09-13T09:01:40.224Z,4.57
2022-09-13T09:04:12.468Z,4.90
2022-09-13T09:06:40.537Z,5.23
2022-09-13T09:09:11.571Z,4.83
2022-09-13T09:11:43.001Z,4.60
2022-09-13T09:14:16.372Z,4.50
2022-09-13T09:16:46.602Z,4.40
2022-09-13T09:19:18.632Z,4.80
2022-09-13T09:21:46.784Z,4.27
2022-09-13T09:24:19.539Z,4.07
2022-09-13T09:26:47.766Z,4.47
2022-09-13T09:29:24.209Z,4.40
2022-09-13T09:32:00.204Z,4.70
2022-09-13T09:34:42.666Z,4.60
2022-09-13T09:37:17.448Z,4.73
2022-09-13T09:39:47.009Z,4.70
2022-09-13T09:42:18.475Z,3.87
2022-09-13T09:44:49.748Z,4.23
2022-09-13T09:47:19.377Z,5.03
2022-09-13T09:50:06.321Z,4.10
2022-09-13T09:52:38.283Z,3.50
2022-09-13T09:55:21.131Z,3.53
2022-09-13T09:57:57.000Z,3.50
2022-09-13T10:00:26.385Z,3.57
2022-09-13T10:02:57.216Z,3.60
2022-09-13T10:05:26.345Z,3.10
2022-09-13T10:07:59.438Z,3.60
2022-09-13T10:10:35.963Z,3.97
2022-09-13T10:13:04.139Z,3.50
2022-09-13T10:15:34.578Z,3.90
2022-09-13T10:18:16.813Z,3.30
2022-09-13T10:21:04.678Z,4.17
2022-09-13T10:23:33.031Z,3.73
2022-09-13T10:26:07.898Z,4.07
2022-09-13T10:28:37.456Z,4.00
2022-09-13T10:31:07.691Z,4.17
2022-09-13T10:33:37.541Z,3.93
2022-09-13T10:36:07.143Z,3.83
2022-09-13T10:38:37.202Z,3.70
2022-09-13T10:41:07.894Z,3.80
2022-09-13T10:43:36.528Z,3.90
2022-09-13T10:46:05.912Z,4.17
2022-09-13T10:48:46.190Z,3.87
2022-09-13T10:51:22.457Z,4.10
2022-09-13T10:53:50.937Z,4.37
2022-09-13T10:56:24.430Z,3.80
2022-09-13T10:58:52.980Z,3.40
2022-09-13T11:01:47.479Z,3.70
2022-09-13T11:04:37.970Z,3.40
2022-09-13T11:07:26.931Z,3.17
2022-09-13T11:09:57.562Z,3.30
2022-09-13T11:12:30.432Z,4.00
2022-09-13T11:15:03.480Z,3.17
2022-09-13T11:17:41.739Z,3.57
2022-09-13T11:20:19.034Z,3.00
2022-09-13T11:23:04.048Z,3.97
2022-09-13T11:25:39.731Z,3.50
2022-09-13T11:28:14.302Z,3.20
2022-09-13T11:30:46.901Z,2.90
2022-09-13T11:33:25.874Z,2.70
2022-09-13T11:36:12.480Z,2.97
2022-09-13T11:38:46.513Z,3.10
2022-09-13T11:41:20.342Z,3.27
2022-09-13T11:43:56.612Z,3.10
2022-09-13T11:46:28.724Z,2.80
2022-09-13T11:49:13.230Z,2.80
2022-09-13T11:51:49.018Z,3.20
2022-09-13T11:54:24.091Z,3.07
2022-09-13T11:56:55.626Z,3.40
2022-09-13T11:59:32.910Z,2.87
2022-09-13T12:02:03.640Z,2.93
2022-09-13T12:04:34.063Z,3.10
2022-09-13T12:07:03.209Z,3.00
2022-09-13T12:09:33.564Z,2.93
2022-09-13T12:12:05.330Z,3.27
2022-09-13T12:14:39.610Z,3.30
2022-09-13T12:17:10.577Z,3.77
2022-09-13T12:19:43.595Z,3.80
2022-09-13T12:22:13.034Z,4.30
2022-09-13T12:24:43.468Z,3.60
2022-09-13T12:27:13.362Z,3.73
2022-09-13T12:29:46.125Z,3.57
2022-09-13T12:32:14.421Z,3.17
2022-09-13T12:34:44.356Z,3.13
2022-09-13T12:37:48.709Z,3.17
2022-09-13T12:41:01.682Z,3.30
2022-09-13T12:43:49.095Z,3.07
2022-09-13T12:46:28.023Z,3.97
2022-09-13T12:49:15.076Z,3.00
2022-09-13T12:51:51.743Z,3.13
2022-09-13T12:54:40.560Z,2.90
2022-09-13T12:57:17.422Z,3.03
2022-09-13T12:59:55.194Z,3.73
2022-09-13T13:02:28.381Z,3.40
2022-09-13T13:04:58.840Z,3.20
2022-09-13T13:07:26.988Z,3.67
2022-09-13T13:09:55.696Z,3.37
2022-09-13T13:12:30.679Z,3.60
2022-09-13T13:14:59.362Z,3.70
2022-09-13T13:17:46.785Z,4.03
2022-09-13T13:20:44.351Z,4.53
2022-09-13T13:23:24.621Z,4.43
2022-09-13T13:26:11.819Z,4.80
2022-09-13T13:29:07.208Z,4.27
2022-09-13T13:31:39.745Z,4.30
2022-09-13T13:34:37.586Z,4.33
2022-09-13T13:37:07.186Z,4.37
2022-09-13T13:39:42.058Z,3.00
2022-09-13T13:42:15.439Z,3.00
2022-09-13T13:44:59.448Z,4.27
2022-09-13T13:48:15.275Z,4.60
2022-09-13T13:51:15.770Z,3.93
2022-09-13T13:53:45.547Z,4.13
2022-09-13T13:56:47.187Z,4.87
2022-09-13T13:59:24.135Z,3.97
2022-09-13T14:01:55.085Z,4.13
2022-09-13T14:05:06.317Z,4.23
2022-09-13T14:07:47.508Z,3.60
2022-09-13T14:10:17.601Z,3.40
2022-09-13T14:13:02.991Z,3.53
2022-09-13T14:15:39.332Z,3.97
2022-09-13T14:18:34.607Z,3.50
2022-09-13T14:21:03.411Z,3.50
2022-09-13T14:23:33.587Z,3.30
2022-09-13T14:26:02.046Z,3.40
2022-09-13T14:28:30.322Z,3.70
2022-09-13T14:30:59.561Z,3.33
2022-09-13T14:33:31.441Z,3.47
2022-09-13T14:36:02.089Z,3.10
2022-09-13T14:38:34.080Z,3.40
2022-09-13T14:41:05.264Z,3.50
2022-09-13T14:43:33.592Z,2.77
2022-09-13T14:46:05.111Z,2.90
2022-09-13T14:48:35.553Z,2.60
2022-09-13T14:51:04.610Z,3.00
2022-09-13T14:53:33.773Z,3.30
2022-09-13T14:56:05.427Z,3.03
2022-09-13T14:58:37.288Z,2.70
2022-09-13T15:01:07.631Z,2.90
2022-09-13T15:03:36.122Z,3.20
2022-09-13T15:06:05.398Z,2.70
2022-09-13T15:08:45.318Z,3.23
2022-09-13T15:11:17.436Z,3.07
2022-09-13T15:13:45.755Z,2.97
2022-09-13T15:16:27.562Z,3.33
2022-09-13T15:19:16.961Z,2.90
2022-09-13T15:21:45.703Z,3.27
2022-09-13T15:24:22.121Z,3.00
2022-09-13T15:27:02.083Z,2.77
2022-09-13T15:29:34.859Z,2.87
2022-09-13T15:32:03.169Z,3.20
2022-09-13T15:34:31.363Z,3.10
2022-09-13T15:37:12.371Z,2.97
2022-09-13T15:39:44.874Z,2.90
2022-09-13T15:42:14.448Z,2.63
2022-09-13T15:44:42.791Z,3.30
2022-09-13T15:47:12.274Z,3.20
2022-09-13T15:49:41.785Z,3.10
2022-09-13T15:52:11.340Z,3.00
2022-09-13T15:54:41.121Z,3.30
2022-09-13T15:57:11.295Z,3.30
2022-09-13T15:59:41.823Z,3.07
2022-09-13T16:02:20.423Z,3.30
2022-09-13T16:04:48.702Z,3.17
2022-09-13T16:07:16.804Z,3.13
2022-09-13T16:09:46.100Z,2.93
2022-09-13T16:12:14.284Z,3.10
2022-09-13T16:14:43.998Z,3.17
2022-09-13T16:17:14.427Z,3.00
2022-09-13T16:19:42.528Z,3.40
2022-09-13T16:22:12.803Z,3.30
2022-09-13T16:24:41.199Z,3.23
2022-09-13T16:27:10.655Z,2.90
2022-09-13T16:29:38.897Z,3.03
2022-09-13T16:32:08.838Z,3.20
2022-09-13T16:34:36.969Z,3.30
2022-09-13T16:37:05.161Z,3.70
2022-09-13T16:39:33.682Z,3.20
2022-09-13T16:42:01.981Z,3.73
2022-09-13T16:44:30.060Z,3.17
2022-09-13T16:46:58.474Z,3.73
2022-09-13T16:49:28.342Z,3.37
2022-09-13T16:51:59.690Z,3.77
2022-09-13T16:54:27.950Z,3.57
2022-09-13T16:56:56.125Z,4.30
2022-09-13T16:59:24.296Z,3.60
2022-09-13T17:01:52.594Z,3.57
2022-09-13T17:04:20.862Z,3.17
2022-09-13T17:06:50.694Z,3.80
2022-09-13T17:09:21.429Z,3.87
2022-09-13T17:11:50.116Z,3.70
2022-09-13T17:14:18.533Z,3.97
2022-09-13T17:16:47.800Z,3.93
2022-09-13T17:19:17.243Z,4.17
2022-09-13T17:21:45.498Z,4.00
2022-09-13T17:24:15.701Z,3.90
2022-09-13T17:26:44.034Z,3.40
2022-09-13T17:29:12.862Z,3.50
2022-09-13T17:31:41.354Z,4.17
2022-09-13T17:34:10.206Z,3.90
2022-09-13T17:36:39.376Z,4.00
2022-09-13T17:39:08.231Z,3.60
2022-09-13T17:41:37.862Z,4.40
2022-09-13T17:44:06.548Z,4.40
2022-09-13T17:46:34.824Z,3.97
2022-09-13T17:49:03.439Z,3.80
2022-09-13T17:51:32.256Z,4.60
2022-09-13T17:54:01.311Z,4.23
2022-09-13T17:56:30.974Z,3.93
2022-09-13T17:59:09.680Z,4.50
2022-09-13T18:01:38.843Z,4.43
2022-09-13T18:04:07.894Z,4.30
2022-09-13T18:06:36.090Z,4.37
2022-09-13T18:09:04.471Z,4.33
2022-09-13T18:11:32.654Z,4.43
2022-09-13T18:14:02.264Z,4.50
2022-09-13T18:16:31.204Z,4.57
2022-09-13T18:19:00.423Z,4.73
2022-09-13T18:21:28.737Z,4.80
2022-09-13T18:23:59.325Z,5.80
2022-09-13T18:26:28.087Z,5.23
2022-09-13T18:28:57.597Z,4.87
2022-09-13T18:31:27.148Z,5.03
2022-09-13T18:33:56.838Z,5.47
2022-09-13T18:36:25.467Z,5.63
2022-09-13T18:38:53.860Z,5.10
2022-09-13T18:41:22.955Z,5.23
2022-09-13T18:43:55.344Z,5.03
2022-09-13T18:46:28.300Z,4.63
2022-09-13T18:48:57.752Z,5.23
2022-09-13T18:51:27.116Z,5.23
2022-09-13T18:53:56.029Z,5.20
2022-09-13T18:56:24.513Z,5.47
2022-09-13T18:58:53.440Z,5.00
2022-09-13T19:01:23.273Z,4.97
2022-09-13T19:03:53.566Z,5.27
2022-09-13T19:06:23.404Z,4.97
2022-09-13T19:08:52.500Z,5.50
2022-09-13T19:11:44.701Z,4.60
2022-09-13T19:14:09.572Z,4.70
2022-09-13T19:16:37.819Z,4.97
2022-09-13T19:19:07.379Z,4.90
2022-09-13T19:21:35.778Z,5.50
2022-09-13T19:24:09.404Z,5.17
2022-09-13T19:26:40.576Z,5.70
2022-09-13T19:29:09.392Z,5.70
2022-09-13T19:31:39.402Z,5.87
2022-09-13T19:34:09.132Z,6.00
2022-09-13T19:36:39.151Z,5.47
2022-09-13T19:39:08.246Z,5.80
2022-09-13T19:41:37.625Z,6.23
2022-09-13T19:44:05.919Z,5.93
2022-09-13T19:46:35.342Z,5.40
2022-09-13T19:49:03.791Z,5.97
2022-09-13T19:51:34.184Z,6.57
2022-09-13T19:54:02.410Z,6.40
2022-09-13T19:56:32.240Z,5.50
2022-09-13T19:59:00.664Z,6.20
2022-09-13T20:01:29.706Z,5.90
2022-09-13T20:03:58.668Z,6.07
2022-09-13T20:06:27.427Z,5.77
2022-09-13T20:08:59.540Z,5.57
2022-09-13T20:11:28.650Z,5.67
2022-09-13T20:13:59.257Z,5.93
2022-09-13T20:16:28.654Z,5.00
2022-09-13T20:18:57.375Z,4.90
2022-09-13T20:21:25.752Z,5.10
2022-09-13T20:23:57.639Z,5.07
2022-09-13T20:26:26.025Z,5.27
2022-09-13T20:28:55.835Z,5.27
2022-09-13T20:31:24.488Z,5.23
2022-09-13T20:33:56.029Z,5.73
2022-09-13T20:36:24.341Z,5.10
2022-09-13T20:38:53.486Z,5.97
2022-09-13T20:41:23.226Z,5.20
2022-09-13T20:43:51.961Z,5.77
2022-09-13T20:46:21.086Z,4.70
2022-09-13T20:48:49.410Z,5.07
2022-09-13T20:51:20.298Z,4.50
2022-09-13T20:53:48.597Z,5.23
2022-09-13T20:56:18.138Z,4.50
2022-09-13T20:58:47.909Z,4.17
2022-09-13T21:01:20.115Z,4.73
2022-09-13T21:03:49.236Z,4.60
2022-09-13T21:06:17.538Z,4.60
2022-09-13T21:08:47.049Z,4.17
2022-09-13T21:11:16.234Z,4.47
2022-09-13T21:13:45.721Z,4.80
2022-09-13T21:16:16.083Z,4.23
2022-09-13T21:18:44.440Z,4.80
2022-09-13T21:21:14.360Z,4.27
2022-09-13T21:23:42.619Z,4.43
2022-09-13T21:26:12.197Z,4.03
2022-09-13T21:28:42.796Z,4.47
2022-09-13T21:31:17.165Z,4.63
2022-09-13T21:33:49.087Z,4.03
2022-09-13T21:36:17.217Z,4.07
2022-09-13T21:38:45.596Z,4.50
2022-09-13T21:41:15.175Z,4.33
2022-09-13T21:43:43.543Z,4.00
2022-09-13T21:46:14.351Z,4.07
2022-09-13T21:48:46.255Z,3.80
2022-09-13T21:51:16.914Z,3.67
2022-09-13T21:53:45.453Z,4.20
2022-09-13T21:56:14.853Z,4.10
2022-09-13T21:58:43.422Z,4.10
2022-09-13T22:01:14.610Z,4.10
2022-09-13T22:03:45.069Z,3.83
2022-09-13T22:06:14.893Z,3.63
2022-09-13T22:08:44.516Z,4.30
2022-09-13T22:11:14.664Z,4.20
2022-09-13T22:13:45.573Z,4.07
2022-09-13T22:16:14.820Z,3.83
2022-09-13T22:18:44.738Z,4.07
2022-09-13T22:21:14.154Z,4.07
2022-09-13T22:23:43.431Z,4.00
2022-09-13T22:26:13.368Z,3.83
2022-09-13T22:28:41.673Z,3.80
2022-09-13T22:31:11.250Z,3.80
2022-09-13T22:33:39.744Z,3.57
2022-09-13T22:36:10.651Z,3.63
2022-09-13T22:38:39.494Z,3.60
2022-09-13T22:41:09.638Z,3.40
2022-09-13T22:43:37.854Z,4.00
2022-09-13T22:46:07.137Z,3.67
2022-09-13T22:48:35.486Z,3.83
2022-09-13T22:51:04.059Z,4.20
2022-09-13T22:53:34.593Z,3.70
2022-09-13T22:56:04.293Z,3.73
2022-09-13T22:58:32.483Z,4.27
2022-09-13T23:01:04.145Z,3.67
2022-09-13T23:03:32.313Z,3.37
2022-09-13T23:06:00.451Z,3.50
2022-09-13T23:08:28.871Z,3.33
2022-09-13T23:10:58.421Z,3.80
2022-09-13T23:13:26.567Z,3.40
2022-09-13T23:15:54.656Z,3.83
2022-09-13T23:18:22.725Z,3.80
2022-09-13T23:20:57.172Z,3.37
2022-09-13T23:23:25.342Z,3.20
2022-09-13T23:25:53.457Z,3.43
2022-09-13T23:28:22.927Z,3.67
2022-09-13T23:30:51.045Z,3.70
2022-09-13T23:33:19.350Z,3.40
2022-09-13T23:35:48.963Z,3.73
2022-09-13T23:38:17.044Z,3.20
2022-09-13T23:40:45.402Z,3.60
2022-09-13T23:43:13.492Z,3.70
2022-09-13T23:45:44.111Z,3.87
2022-09-13T23:48:12.496Z,3.53
2022-09-13T23:50:40.737Z,3.60
2022-09-13T23:53:08.856Z,3.60
2022-09-13T23:55:37.064Z,3.03
2022-09-13T23:58:05.186Z,3.50
